Time;durP1;ratioP1;P1;durP2;ratioP2;P2;SDS_P1;SDS_P2;PMS_P1;PMS_P2;Temp;Humidity;BMP_temperature;BMP_pressure;BME280_temperature;BME280_humidity;BME280_pressure;Samples;Min_cycle;Max_cycle;Signal;HPM_P1;HPM_P2
2022/07/03 00:01:54;;;;;;;5.43;2.67;;;18.10;99.90;;;;;;5092863;28;20209;-66
2022/07/03 00:04:20;;;;;;;3.90;2.63;;;18.10;99.90;;;;;;5093103;28;20197;-66
2022/07/03 00:06:46;;;;;;;4.00;2.92;;;18.10;99.90;;;;;;5095949;28;20235;-66
2022/07/03 00:09:12;;;;;;;3.33;2.60;;;18.00;99.90;;;;;;5095169;28;20181;-66
2022/07/03 00:11:38;;;;;;;3.60;2.85;;;17.90;99.90;;;;;;5096787;28;20256;-66
2022/07/03 00:14:04;;;;;;;4.60;2.58;;;17.90;99.90;;;;;;5095236;28;20263;-67
2022/07/03 00:16:30;;;;;;;2.75;2.45;;;17.90;99.90;;;;;;5095030;28;20267;-67
2022/07/03 00:18:56;;;;;;;2.55;2.15;;;17.90;99.90;;;;;;5096146;28;20212;-66
2022/07/03 00:21:29;;;;;;;3.45;2.70;;;17.80;99.90;;;;;;5096022;28;20219;-66
2022/07/03 00:24:08;;;;;;;3.15;2.10;;;17.70;99.90;;;;;;5096215;28;20173;-66
2022/07/03 00:26:36;;;;;;;3.20;2.40;;;17.70;99.90;;;;;;5096071;28;20173;-66
2022/07/03 00:29:03;;;;;;;6.18;2.70;;;17.60;99.90;;;;;;5096359;28;20202;-66
2022/07/03 00:31:30;;;;;;;2.60;2.40;;;17.60;99.90;;;;;;5095994;28;20213;-66
2022/07/03 00:34:01;;;;;;;2.92;2.58;;;17.50;99.90;;;;;;5094690;28;20261;-66
2022/07/03 00:36:34;;;;;;;3.38;2.45;;;17.40;99.90;;;;;;5095997;28;20173;-66
2022/07/03 00:39:00;;;;;;;3.47;2.67;;;17.30;99.90;;;;;;5096257;28;20208;-66
2022/07/03 00:41:32;;;;;;;2.58;2.35;;;17.20;99.90;;;;;;5096134;28;20630;-66
2022/07/03 00:43:58;;;;;;;4.25;2.83;;;17.20;99.90;;;;;;5096399;28;20154;-66
2022/07/03 00:46:25;;;;;;;5.00;2.83;;;17.20;99.90;;;;;;5094431;28;20260;-67
2022/07/03 00:48:53;;;;;;;2.80;2.60;;;17.10;99.90;;;;;;5094737;28;20188;-66
2022/07/03 00:51:29;;;;;;;3.05;2.67;;;17.20;99.90;;;;;;5095640;28;20260;-66
2022/07/03 00:54:01;;;;;;;4.55;2.63;;;17.10;99.90;;;;;;5094409;28;20204;-67
2022/07/03 00:56:30;;;;;;;4.85;2.40;;;17.10;99.90;;;;;;5094329;28;20180;-66
2022/07/03 00:58:58;;;;;;;6.15;3.00;;;17.10;99.90;;;;;;5095998;28;20199;-66
2022/07/03 01:01:31;;;;;;;4.32;2.72;;;17.00;99.90;;;;;;5094300;28;20189;-66
2022/07/03 01:04:26;;;;;;;3.20;2.90;;;17.00;99.90;;;;;;5095781;28;20196;-66
2022/07/03 01:07:02;;;;;;;5.60;2.80;;;16.90;99.90;;;;;;5095148;28;20226;-66
2022/07/03 01:09:48;;;;;;;3.33;2.60;;;16.80;99.90;;;;;;5094235;28;20169;-66
2022/07/03 01:12:37;;;;;;;4.75;2.95;;;16.80;99.90;;;;;;5094183;28;20586;-66
2022/07/03 01:15:11;;;;;;;4.22;2.80;;;16.70;99.90;;;;;;5095358;28;20257;-66
2022/07/03 01:17:48;;;;;;;4.47;3.00;;;16.60;99.90;;;;;;5094585;28;20298;-66
2022/07/03 01:20:17;;;;;;;5.95;3.30;;;16.50;99.90;;;;;;5096123;28;20197;-66
2022/07/03 01:22:47;;;;;;;3.35;3.05;;;16.50;99.90;;;;;;5093888;28;20180;-66
2022/07/03 01:25:44;;;;;;;4.57;3.33;;;16.50;99.90;;;;;;5094208;28;20218;-66
2022/07/03 01:28:14;;;;;;;4.07;3.35;;;16.40;99.90;;;;;;5095434;28;20193;-66
2022/07/03 01:30:47;;;;;;;6.82;3.63;;;16.40;99.90;;;;;;5095012;28;20211;-66
2022/07/03 01:33:19;;;;;;;5.82;3.10;;;16.40;99.90;;;;;;5095116;28;20161;-66
2022/07/03 01:36:07;;;;;;;6.20;3.45;;;16.40;99.90;;;;;;5095192;28;20241;-67
2022/07/03 01:38:35;;;;;;;4.00;3.10;;;16.50;99.90;;;;;;5094650;28;20197;-66
2022/07/03 01:41:04;;;;;;;5.07;3.08;;;16.50;99.90;;;;;;5093581;28;20173;-66
2022/07/03 01:43:32;;;;;;;3.72;3.10;;;16.60;99.90;;;;;;5095341;28;20532;-66
2022/07/03 01:46:00;;;;;;;4.72;3.33;;;16.60;99.90;;;;;;5094734;28;20197;-66
2022/07/03 01:48:28;;;;;;;4.28;3.33;;;16.70;99.90;;;;;;5094568;28;20189;-66
2022/07/03 01:50:55;;;;;;;3.13;2.85;;;16.60;99.90;;;;;;5093109;28;20234;-66
2022/07/03 01:53:27;;;;;;;3.47;3.17;;;16.70;99.90;;;;;;5093136;28;20173;-66
2022/07/03 01:56:02;;;;;;;2.92;2.70;;;16.70;99.90;;;;;;5094530;28;20165;-66
2022/07/03 01:58:28;;;;;;;4.55;2.90;;;16.60;99.90;;;;;;5093208;28;20541;-66
2022/07/03 02:01:08;;;;;;;6.45;2.90;;;16.50;99.90;;;;;;5094653;28;20330;-66
2022/07/03 02:03:35;;;;;;;4.68;2.58;;;16.50;99.90;;;;;;5093356;28;20530;-66
2022/07/03 02:06:10;;;;;;;4.70;3.00;;;16.50;99.90;;;;;;5094356;28;20634;-66
2022/07/03 02:08:36;;;;;;;4.57;3.00;;;16.40;99.90;;;;;;5094094;28;20196;-66
2022/07/03 02:11:05;;;;;;;4.63;3.05;;;16.30;99.90;;;;;;5094471;28;20169;-66
2022/07/03 02:13:37;;;;;;;10.38;3.55;;;16.30;99.90;;;;;;5094064;28;20244;-66
2022/07/03 02:16:03;;;;;;;3.78;3.13;;;16.20;99.90;;;;;;5094440;28;20610;-66
2022/07/03 02:18:34;;;;;;;4.95;3.38;;;16.20;99.90;;;;;;5093734;28;20215;-66
2022/07/03 02:21:14;;;;;;;4.90;3.55;;;16.10;99.90;;;;;;5092511;28;20178;-66
2022/07/03 02:23:54;;;;;;;5.72;3.47;;;16.10;99.90;;;;;;5093904;28;20197;-66
2022/07/03 02:26:25;;;;;;;6.80;3.80;;;16.00;99.90;;;;;;5094240;28;20230;-66
2022/07/03 02:29:01;;;;;;;3.60;3.30;;;16.00;99.90;;;;;;5092598;28;20203;-66
2022/07/03 02:31:27;;;;;;;4.57;3.55;;;15.90;99.90;;;;;;5094412;28;20210;-66
2022/07/03 02:33:58;;;;;;;3.85;3.10;;;15.90;99.90;;;;;;5093784;28;20638;-66
2022/07/03 02:36:28;;;;;;;3.65;3.30;;;15.90;99.90;;;;;;5092178;28;20179;-66
2022/07/03 02:38:57;;;;;;;3.42;3.13;;;15.90;99.90;;;;;;5093652;28;20210;-66
2022/07/03 02:41:52;;;;;;;6.70;3.97;;;15.90;99.90;;;;;;5093990;28;20222;-66
2022/07/03 02:44:34;;;;;;;3.70;3.30;;;15.80;99.90;;;;;;5092709;28;20181;-66
2022/07/03 02:47:19;;;;;;;5.40;3.45;;;15.80;99.90;;;;;;5093832;28;20185;-66
2022/07/03 02:49:57;;;;;;;5.80;3.42;;;15.90;99.90;;;;;;5093546;28;20177;-66
2022/07/03 02:52:38;;;;;;;4.18;3.30;;;15.90;99.90;;;;;;5093471;28;20214;-66
2022/07/03 02:55:25;;;;;;;3.47;3.17;;;15.90;99.90;;;;;;5093511;28;20233;-66
2022/07/03 02:58:28;;;;;;;4.68;3.45;;;15.90;99.90;;;;;;5093764;28;20193;-66
2022/07/03 03:01:08;;;;;;;4.05;3.53;;;15.90;99.90;;;;;;5093401;28;20224;-66
2022/07/03 03:03:36;;;;;;;4.10;3.08;;;15.90;99.90;;;;;;5092317;28;20176;-66
2022/07/03 03:06:08;;;;;;;4.38;3.63;;;15.90;99.90;;;;;;5093511;28;20181;-66
2022/07/03 03:08:48;;;;;;;5.45;3.72;;;15.80;99.90;;;;;;5093364;28;20185;-66
2022/07/03 03:11:38;;;;;;;4.88;3.75;;;15.80;99.90;;;;;;5094280;28;20530;-66
2022/07/03 03:14:07;;;;;;;6.10;3.67;;;15.70;99.90;;;;;;5093451;28;20218;-66
2022/07/03 03:16:36;;;;;;;3.83;3.50;;;15.60;99.90;;;;;;5092044;28;20559;-66
2022/07/03 03:19:02;;;;;;;5.20;3.38;;;15.50;99.90;;;;;;5093097;28;20215;-66
2022/07/03 03:21:31;;;;;;;5.95;3.65;;;15.50;99.90;;;;;;5093518;28;20166;-66
2022/07/03 03:23:58;;;;;;;4.35;3.90;;;15.50;99.90;;;;;;5093587;28;20165;-66
2022/07/03 03:26:28;;;;;;;4.85;3.40;;;15.40;99.90;;;;;;5093265;28;20166;-66
2022/07/03 03:28:54;;;;;;;5.55;3.58;;;15.30;99.90;;;;;;5093651;28;20573;-66
2022/07/03 03:31:21;;;;;;;4.03;3.50;;;15.20;99.90;;;;;;5091904;28;20177;-66
2022/07/03 03:33:49;;;;;;;5.00;3.95;;;15.20;99.90;;;;;;5094207;28;20181;-65
2022/07/03 03:36:17;;;;;;;4.10;3.33;;;15.20;99.90;;;;;;5091695;28;20225;-64
2022/07/03 03:38:44;;;;;;;4.90;3.47;;;15.20;99.90;;;;;;5093337;28;20663;-64
2022/07/03 03:41:10;;;;;;;5.05;3.65;;;15.30;99.90;;;;;;5094541;28;20264;-64
2022/07/03 03:43:36;;;;;;;7.03;3.60;;;15.30;99.90;;;;;;5097426;28;20184;-64
2022/07/03 03:46:03;;;;;;;6.25;3.53;;;15.20;99.90;;;;;;5096139;28;20174;-66
2022/07/03 03:48:31;;;;;;;8.70;4.18;;;15.20;99.90;;;;;;5097439;28;20230;-67
2022/07/03 03:50:57;;;;;;;4.32;3.55;;;15.10;99.90;;;;;;5096726;28;20716;-67
2022/07/03 03:53:25;;;;;;;3.85;3.47;;;15.10;99.90;;;;;;5096890;28;20206;-66
2022/07/03 03:56:07;;;;;;;5.05;3.65;;;15.10;99.90;;;;;;5095541;28;20749;-66
2022/07/03 03:58:36;;;;;;;4.53;3.80;;;15.10;99.90;;;;;;5095580;28;20616;-66
2022/07/03 04:01:04;;;;;;;5.03;3.30;;;15.10;99.90;;;;;;5095661;28;20185;-66
2022/07/03 04:03:31;;;;;;;6.82;3.78;;;15.00;99.90;;;;;;5097147;28;20197;-66
2022/07/03 04:05:57;;;;;;;4.07;3.42;;;15.00;99.90;;;;;;5096807;28;20272;-67
2022/07/03 04:08:24;;;;;;;5.43;3.53;;;15.10;99.90;;;;;;5096727;28;20244;-66
2022/07/03 04:10:50;;;;;;;6.90;4.15;;;15.10;99.90;;;;;;5095378;28;20268;-66
2022/07/03 04:13:16;;;;;;;3.88;3.47;;;15.10;99.90;;;;;;5097086;28;20212;-66
2022/07/03 04:15:43;;;;;;;5.03;3.65;;;15.10;99.90;;;;;;5097255;28;20280;-66
2022/07/03 04:18:09;;;;;;;5.05;4.13;;;15.10;99.90;;;;;;5097336;28;20205;-66
2022/07/03 04:20:35;;;;;;;4.65;3.83;;;15.10;99.90;;;;;;5095471;28;20606;-66
2022/07/03 04:23:01;;;;;;;5.03;3.70;;;15.20;99.90;;;;;;5096716;28;20173;-66
2022/07/03 04:25:27;;;;;;;5.63;3.55;;;15.20;99.90;;;;;;5096472;28;20166;-66
2022/07/03 04:27:53;;;;;;;6.78;3.90;;;15.20;99.90;;;;;;5096404;28;20197;-66
2022/07/03 04:30:19;;;;;;;5.47;3.92;;;15.30;99.90;;;;;;5096242;28;20189;-66
2022/07/03 04:32:45;;;;;;;5.03;3.63;;;15.30;99.90;;;;;;5096320;28;20174;-66
2022/07/03 04:35:11;;;;;;;4.47;4.05;;;15.40;99.90;;;;;;5096439;28;20646;-66
2022/07/03 04:37:37;;;;;;;4.97;3.75;;;15.40;99.90;;;;;;5096000;28;20193;-66
2022/07/03 04:40:03;;;;;;;4.35;3.72;;;15.50;99.90;;;;;;5095920;28;20689;-66
2022/07/03 04:42:29;;;;;;;4.78;3.75;;;15.60;99.90;;;;;;5095944;28;20170;-66
2022/07/03 04:44:55;;;;;;;4.95;3.60;;;15.70;99.90;;;;;;5094688;28;20703;-66
2022/07/03 04:47:21;;;;;;;5.18;3.72;;;15.70;99.90;;;;;;5095876;28;20707;-66
2022/07/03 04:49:47;;;;;;;4.22;3.55;;;15.80;99.90;;;;;;5095803;28;20181;-66
2022/07/03 04:52:13;;;;;;;4.63;3.78;;;15.80;99.90;;;;;;5094378;28;20173;-66
2022/07/03 04:54:38;;;;;;;7.28;3.90;;;15.80;99.90;;;;;;5095970;28;20250;-66
2022/07/03 04:57:05;;;;;;;3.88;3.15;;;15.80;99.90;;;;;;5094364;28;20201;-66
2022/07/03 04:59:31;;;;;;;6.30;3.20;;;15.90;99.90;;;;;;5095558;28;20665;-66
2022/07/03 05:01:57;;;;;;;4.93;3.72;;;16.10;99.90;;;;;;5095608;28;20660;-66
2022/07/03 05:04:22;;;;;;;4.03;3.22;;;16.20;99.90;;;;;;5095512;28;20173;-66
2022/07/03 05:06:48;;;;;;;4.20;3.03;;;16.30;99.90;;;;;;5095308;28;20197;-66
2022/07/03 05:09:14;;;;;;;3.80;3.17;;;16.40;99.90;;;;;;5095364;28;20165;-67
2022/07/03 05:11:41;;;;;;;5.03;3.92;;;16.40;99.90;;;;;;5095343;28;20177;-66
2022/07/03 05:14:07;;;;;;;4.40;3.55;;;16.50;99.90;;;;;;5095411;28;20199;-66
2022/07/03 05:16:33;;;;;;;4.35;3.53;;;16.60;99.90;;;;;;5094062;28;20177;-67
2022/07/03 05:18:59;;;;;;;4.18;3.13;;;16.60;99.90;;;;;;5093817;28;20217;-67
2022/07/03 05:21:25;;;;;;;4.88;3.50;;;16.70;99.90;;;;;;5095220;28;20203;-66
2022/07/03 05:23:51;;;;;;;3.60;3.22;;;16.80;99.90;;;;;;5095624;28;20173;-66
2022/07/03 05:26:17;;;;;;;4.97;3.20;;;17.00;99.90;;;;;;5095649;28;20177;-66
2022/07/03 05:28:43;;;;;;;4.35;3.38;;;17.10;99.90;;;;;;5095040;28;20228;-66
2022/07/03 05:31:09;;;;;;;3.25;2.90;;;17.10;99.90;;;;;;5094956;28;20189;-66
2022/07/03 05:33:35;;;;;;;5.90;3.10;;;17.30;99.90;;;;;;5095061;28;20173;-66
2022/07/03 05:36:01;;;;;;;5.28;3.30;;;17.30;99.90;;;;;;5095014;28;20165;-66
2022/07/03 05:41:11;;;;;;;3.33;2.92;;;17.50;99.90;;;;;;5095496;28;20169;-66
2022/07/03 05:43:37;;;;;;;4.95;3.10;;;17.50;99.90;;;;;;5094764;28;20173;-66
2022/07/03 05:46:04;;;;;;;4.18;3.05;;;17.50;99.90;;;;;;5094693;28;20647;-66
2022/07/03 05:48:30;;;;;;;5.30;2.95;;;17.50;99.90;;;;;;5093234;28;20228;-67
2022/07/03 05:50:56;;;;;;;4.70;3.00;;;17.50;99.90;;;;;;5094665;28;20658;-66
2022/07/03 05:53:22;;;;;;;4.80;2.80;;;17.50;99.90;;;;;;5093096;28;20552;-66
2022/07/03 05:55:48;;;;;;;4.45;3.08;;;17.50;99.90;;;;;;5094519;28;20252;-66
2022/07/03 05:58:14;;;;;;;3.60;3.30;;;17.60;99.90;;;;;;5095248;28;20252;-66
2022/07/03 06:00:40;;;;;;;4.93;3.22;;;17.60;99.90;;;;;;5094779;28;20189;-66
2022/07/03 06:03:06;;;;;;;4.60;3.10;;;17.70;99.90;;;;;;5094071;28;20177;-66
2022/07/03 06:05:32;;;;;;;4.55;3.17;;;17.80;99.90;;;;;;5094385;28;20170;-66
2022/07/03 06:07:59;;;;;;;5.80;3.00;;;17.90;99.90;;;;;;5094133;28;20193;-66
2022/07/03 06:10:25;;;;;;;3.15;2.65;;;18.00;99.90;;;;;;5094294;28;20176;-66
2022/07/03 06:12:51;;;;;;;4.03;3.05;;;18.00;99.90;;;;;;5094472;28;20180;-66
2022/07/03 06:15:17;;;;;;;4.18;3.17;;;18.10;99.90;;;;;;5092912;28;20177;-66
2022/07/03 06:17:43;;;;;;;3.47;2.55;;;18.30;99.90;;;;;;5093982;28;20337;-66
2022/07/03 06:20:10;;;;;;;5.35;3.10;;;18.40;99.90;;;;;;5093969;28;20235;-66
2022/07/03 06:22:36;;;;;;;4.30;2.80;;;18.60;99.90;;;;;;5094028;28;20173;-66
2022/07/03 06:25:02;;;;;;;4.55;3.10;;;18.60;99.90;;;;;;5092755;28;20265;-67
2022/07/03 06:27:28;;;;;;;5.38;2.75;;;18.80;99.90;;;;;;5094055;28;20189;-66
2022/07/03 06:29:54;;;;;;;6.95;2.92;;;19.00;99.90;;;;;;5094530;28;20180;-67
2022/07/03 06:32:20;;;;;;;5.75;3.17;;;19.10;99.90;;;;;;5093903;28;20173;-67
2022/07/03 06:34:46;;;;;;;5.82;2.63;;;19.30;99.90;;;;;;5093814;28;20686;-67
2022/07/03 06:37:12;;;;;;;3.88;3.00;;;19.30;99.90;;;;;;5092232;28;20197;-66
2022/07/03 06:39:39;;;;;;;6.25;2.95;;;19.30;99.90;;;;;;5094936;28;20204;-69
2022/07/03 06:42:05;;;;;;;2.80;2.60;;;19.40;99.90;;;;;;5094235;28;20168;-69
2022/07/03 06:44:35;;;;;;;2.63;2.42;;;19.40;99.90;;;;;;5092624;28;20188;-69
2022/07/03 06:47:04;;;;;;;4.03;2.20;;;19.50;99.90;;;;;;5092445;28;20189;-69
2022/07/03 06:49:33;;;;;;;2.90;2.40;;;19.60;99.90;;;;;;5093936;28;20538;-70
2022/07/03 06:51:59;;;;;;;2.28;2.08;;;19.70;99.90;;;;;;5093691;28;20173;-70
2022/07/03 06:54:25;;;;;;;3.50;2.40;;;19.70;99.90;;;;;;5093738;28;20184;-69
2022/07/03 06:56:51;;;;;;;4.88;2.80;;;19.90;99.90;;;;;;5093471;28;20201;-69
2022/07/03 06:59:17;;;;;;;3.55;2.40;;;20.00;99.90;;;;;;5093662;28;20288;-69
2022/07/03 07:01:42;;;;;;;3.38;2.33;;;20.10;99.90;;;;;;5093515;28;20551;-70
2022/07/03 07:04:08;;;;;;;2.10;2.00;;;20.30;99.90;;;;;;5092332;28;20710;-69
2022/07/03 07:06:34;;;;;;;2.47;2.10;;;20.30;99.90;;;;;;5092980;28;20188;-69
2022/07/03 07:09:00;;;;;;;2.67;2.10;;;20.50;99.90;;;;;;5093783;28;20701;-68
2022/07/03 07:11:26;;;;;;;2.42;2.03;;;20.60;99.90;;;;;;5093362;28;20201;-67
2022/07/03 07:13:52;;;;;;;3.30;2.30;;;20.70;99.90;;;;;;5093462;28;20208;-70
2022/07/03 07:16:18;;;;;;;2.40;2.20;;;20.80;99.90;;;;;;5096556;28;20690;-69
2022/07/03 07:18:44;;;;;;;4.10;2.55;;;20.90;99.90;;;;;;5096626;28;20618;-70
2022/07/03 07:21:10;;;;;;;2.53;2.10;;;21.00;99.90;;;;;;5098678;28;20169;-68
2022/07/03 07:23:36;;;;;;;3.63;2.40;;;21.20;99.90;;;;;;5097609;28;20181;-66
2022/07/03 07:26:03;;;;;;;4.35;2.10;;;21.30;99.90;;;;;;5098045;28;20267;-67
2022/07/03 07:28:30;;;;;;;5.32;2.42;;;21.40;99.90;;;;;;5097494;28;20225;-67
2022/07/03 07:30:57;;;;;;;2.40;2.10;;;21.50;99.90;;;;;;5098078;28;20157;-66
2022/07/03 07:33:23;;;;;;;3.78;2.10;;;21.60;99.90;;;;;;5097215;28;20561;-66
2022/07/03 07:35:50;;;;;;;4.35;2.30;;;21.70;99.90;;;;;;5097124;28;20173;-67
2022/07/03 07:38:17;;;;;;;6.32;2.35;;;21.70;99.90;;;;;;5100763;28;20201;-67
2022/07/03 07:40:42;;;;;;;3.60;2.33;;;21.80;99.90;;;;;;5099763;28;20665;-68
2022/07/03 07:43:08;;;;;;;3.35;2.28;;;21.90;99.90;;;;;;5099777;28;20170;-66
2022/07/03 07:45:34;;;;;;;3.28;2.20;;;21.90;99.90;;;;;;5101127;28;20196;-68
2022/07/03 07:48:00;;;;;;;5.53;2.35;;;21.90;99.90;;;;;;5099808;28;20193;-67
2022/07/03 07:50:26;;;;;;;4.03;2.10;;;22.00;99.90;;;;;;5098258;28;20271;-69
2022/07/03 07:52:52;;;;;;;4.22;2.10;;;22.00;99.90;;;;;;5100503;28;20177;-70
2022/07/03 07:55:20;;;;;;;2.60;2.10;;;22.00;99.90;;;;;;5098470;28;20222;-68
2022/07/03 07:57:46;;;;;;;6.85;2.40;;;22.10;99.90;;;;;;5098449;28;20193;-68
2022/07/03 08:00:16;;;;;;;4.07;2.45;;;22.20;99.90;;;;;;5098736;28;20193;-66
2022/07/03 08:05:37;;;;;;;3.95;2.00;;;22.30;99.90;;;;;;5097394;28;20519;-67
2022/07/03 08:08:04;;;;;;;2.28;1.90;;;22.40;99.90;;;;;;5096610;28;20195;-67
2022/07/03 08:10:38;;;;;;;2.75;1.90;;;22.50;99.90;;;;;;5096782;28;20177;-68
2022/07/03 08:13:04;;;;;;;4.40;1.92;;;22.50;99.90;;;;;;5097223;28;20165;-67
2022/07/03 08:15:30;;;;;;;2.40;2.00;;;22.60;99.90;;;;;;5095584;28;20603;-73
2022/07/03 08:17:56;;;;;;;3.15;1.75;;;22.70;99.90;;;;;;5096601;28;20217;-73
2022/07/03 08:20:22;;;;;;;2.58;1.75;;;22.70;99.90;;;;;;5095418;28;20205;-73
2022/07/03 08:22:47;;;;;;;2.67;1.90;;;22.80;99.90;;;;;;5095673;28;20181;-73
2022/07/03 08:25:13;;;;;;;3.50;2.00;;;22.90;99.90;;;;;;5098524;28;20192;-69
2022/07/03 08:27:39;;;;;;;2.83;2.13;;;23.00;99.90;;;;;;5096323;28;20208;-69
2022/07/03 08:30:05;;;;;;;2.30;1.90;;;23.00;99.90;;;;;;5096263;28;20662;-69
2022/07/03 08:32:31;;;;;;;3.10;2.05;;;23.10;99.90;;;;;;5096468;28;20184;-69
2022/07/03 08:34:57;;;;;;;5.47;2.03;;;23.30;99.90;;;;;;5096428;28;20165;-74
2022/07/03 08:37:23;;;;;;;3.47;1.80;;;23.20;99.90;;;;;;5094750;28;20228;-73
2022/07/03 08:39:48;;;;;;;2.05;1.58;;;23.40;99.90;;;;;;5096358;28;20204;-73
2022/07/03 08:42:16;;;;;;;2.42;1.83;;;23.50;99.90;;;;;;5095087;28;20660;-73
2022/07/03 08:44:43;;;;;;;3.47;1.73;;;23.50;99.90;;;;;;5095351;28;20717;-73
2022/07/03 08:47:12;;;;;;;2.80;1.50;;;23.60;99.90;;;;;;5096918;28;20193;-73
2022/07/03 08:49:38;;;;;;;4.68;1.67;;;23.70;99.90;;;;;;5095378;28;20185;-73
2022/07/03 08:52:07;;;;;;;4.32;1.50;;;23.70;99.90;;;;;;5096314;28;20185;-73
2022/07/03 08:54:33;;;;;;;4.65;2.42;;;23.80;99.90;;;;;;5096649;28;20162;-73
2022/07/03 08:57:03;;;;;;;2.83;1.42;;;23.90;99.90;;;;;;5097862;28;20197;-72
2022/07/03 08:59:39;;;;;;;2.65;1.55;;;23.90;99.90;;;;;;5095583;28;20243;-73
2022/07/03 09:02:06;;;;;;;5.32;1.80;;;24.00;99.90;;;;;;5096263;28;20219;-72
2022/07/03 09:04:34;;;;;;;3.83;1.60;;;24.20;99.90;;;;;;5095944;28;20169;-74
2022/07/03 09:07:00;;;;;;;2.42;1.38;;;24.30;99.90;;;;;;5094604;28;20680;-73
2022/07/03 09:09:27;;;;;;;3.03;1.90;;;24.30;99.90;;;;;;5095939;28;20626;-73
2022/07/03 09:11:53;;;;;;;8.38;1.90;;;24.50;99.90;;;;;;5095752;28;20217;-73
2022/07/03 09:14:19;;;;;;;1.90;1.40;;;24.50;99.90;;;;;;5095743;28;20169;-73
2022/07/03 09:16:45;;;;;;;4.30;1.60;;;24.70;99.90;;;;;;5094218;28;20203;-74
2022/07/03 09:19:11;;;;;;;3.50;1.90;;;25.00;99.90;;;;;;5095834;28;20192;-73
2022/07/03 09:21:38;;;;;;;5.80;1.70;;;25.10;99.90;;;;;;5095502;28;20193;-73
2022/07/03 09:24:06;;;;;;;2.20;1.60;;;25.30;99.90;;;;;;5095387;28;20581;-73
2022/07/03 09:26:32;;;;;;;3.20;1.30;;;25.40;99.90;;;;;;5094114;28;20173;-73
2022/07/03 09:28:58;;;;;;;2.47;1.35;;;25.60;99.90;;;;;;5094137;28;20177;-73
2022/07/03 09:31:29;;;;;;;3.10;1.70;;;25.80;99.90;;;;;;5095281;28;20702;-73
2022/07/03 09:33:55;;;;;;;4.28;1.50;;;25.70;99.90;;;;;;5094183;28;20238;-73
2022/07/03 09:36:23;;;;;;;2.33;1.70;;;25.70;99.90;;;;;;5095519;28;20177;-73
2022/07/03 09:38:49;;;;;;;2.97;1.83;;;26.00;99.90;;;;;;5094420;28;20272;-73
2022/07/03 09:41:15;;;;;;;1.75;1.65;;;26.00;99.90;;;;;;5095647;28;20168;-73
2022/07/03 09:43:43;;;;;;;2.88;1.90;;;26.00;99.90;;;;;;5094285;28;20268;-73
2022/07/03 09:46:09;;;;;;;4.45;1.77;;;26.20;99.90;;;;;;5094994;28;20176;-72
2022/07/03 09:48:37;;;;;;;5.80;1.70;;;26.20;99.90;;;;;;5095012;28;20188;-73
2022/07/03 09:51:19;;;;;;;2.05;1.35;;;26.30;99.90;;;;;;5095345;28;20177;-74
2022/07/03 09:53:50;;;;;;;3.72;1.67;;;26.20;99.90;;;;;;5093997;28;20583;-73
2022/07/03 09:56:20;;;;;;;3.28;1.50;;;26.20;99.90;;;;;;5095077;28;20157;-74
2022/07/03 09:59:10;;;;;;;3.15;1.80;;;26.20;99.90;;;;;;5093497;28;20204;-73
2022/07/03 10:01:46;;;;;;;2.38;1.30;;;26.00;99.90;;;;;;5095136;28;20649;-74
2022/07/03 10:04:20;;;;;;;1.95;1.40;;;26.10;99.90;;;;;;5094949;28;20590;-73
2022/07/03 10:06:47;;;;;;;5.45;1.98;;;26.20;99.90;;;;;;5093315;28;20200;-72
2022/07/03 10:09:16;;;;;;;2.42;1.80;;;26.30;99.90;;;;;;5094436;28;20388;-74
2022/07/03 10:11:42;;;;;;;2.70;1.60;;;26.50;99.90;;;;;;5093758;28;20184;-74
2022/07/03 10:14:11;;;;;;;4.68;2.05;;;26.60;99.90;;;;;;5095155;28;20169;-74
2022/07/03 10:16:37;;;;;;;2.70;1.88;;;26.50;99.90;;;;;;5094169;28;20177;-72
2022/07/03 10:19:05;;;;;;;4.70;1.85;;;26.50;99.90;;;;;;5094573;28;20197;-73
2022/07/03 10:21:32;;;;;;;3.92;1.90;;;26.60;99.90;;;;;;5094807;28;20175;-73
2022/07/03 10:23:59;;;;;;;3.35;1.63;;;26.50;99.90;;;;;;5094550;28;20541;-72
2022/07/03 10:26:25;;;;;;;3.88;1.90;;;26.70;99.90;;;;;;5095031;28;20177;-72
2022/07/03 10:28:52;;;;;;;2.75;1.80;;;26.80;99.90;;;;;;5094944;28;20173;-73
2022/07/03 10:31:19;;;;;;;3.38;1.77;;;27.10;99.90;;;;;;5095949;28;20169;-72
2022/07/03 10:33:45;;;;;;;3.88;1.65;;;27.10;99.90;;;;;;5096552;28;20165;-73
2022/07/03 10:36:11;;;;;;;3.72;1.80;;;26.90;99.90;;;;;;5094644;28;20177;-72
2022/07/03 10:38:45;;;;;;;4.63;1.80;;;27.10;99.90;;;;;;5093894;28;20197;-72
2022/07/03 10:47:00;;;;;;;4.93;1.80;;;26.90;99.90;;;;;;5094501;28;20304;-73
2022/07/03 10:49:26;;;;;;;4.30;2.10;;;27.00;99.90;;;;;;5093332;28;20208;-72
2022/07/03 10:52:00;;;;;;;3.67;1.80;;;27.10;99.90;;;;;;5094016;28;20169;-73
2022/07/03 10:54:36;;;;;;;2.67;1.60;;;27.20;99.90;;;;;;5092446;28;20223;-72
2022/07/03 10:57:01;;;;;;;3.85;1.67;;;27.10;99.90;;;;;;5092798;28;20669;-73
2022/07/03 10:59:36;;;;;;;1.50;1.40;;;27.00;99.90;;;;;;5093884;28;20242;-73
2022/07/03 11:02:22;;;;;;;3.75;1.58;;;26.80;99.90;;;;;;5092498;28;20221;-73
2022/07/03 11:04:56;;;;;;;2.83;1.92;;;26.80;99.90;;;;;;5094009;28;20171;-73
2022/07/03 11:07:22;;;;;;;1.80;1.55;;;27.00;99.90;;;;;;5093332;28;20219;-73
2022/07/03 11:10:12;;;;;;;3.55;1.77;;;27.10;99.90;;;;;;5092609;28;20177;-73
2022/07/03 11:12:56;;;;;;;3.42;1.80;;;27.20;99.90;;;;;;5093730;28;20260;-73
2022/07/03 11:15:38;;;;;;;2.78;1.65;;;26.80;99.90;;;;;;5092498;28;20187;-73
2022/07/03 11:18:12;;;;;;;3.20;1.98;;;26.60;99.90;;;;;;5093386;28;20207;-69
2022/07/03 11:20:44;;;;;;;4.50;1.83;;;26.30;99.90;;;;;;5093564;28;20279;-73
2022/07/03 11:23:09;;;;;;;4.10;1.95;;;26.30;99.90;;;;;;5092446;28;20208;-73
2022/07/03 11:25:46;;;;;;;5.43;2.15;;;26.50;99.90;;;;;;5093690;28;20200;-73
2022/07/03 11:28:32;;;;;;;3.53;1.80;;;26.80;99.90;;;;;;5092371;28;20568;-75
2022/07/03 11:33:54;;;;;;;3.28;1.90;;;27.60;99.90;;;;;;5093772;28;20177;-68
2022/07/03 11:36:33;;;;;;;4.93;2.00;;;27.80;99.90;;;;;;5091869;28;20625;-68
2022/07/03 11:38:58;;;;;;;2.60;1.65;;;27.70;99.90;;;;;;5093671;28;20179;-69
2022/07/03 11:41:26;;;;;;;4.85;1.50;;;26.90;99.90;;;;;;5092404;28;20543;-74
2022/07/03 11:43:57;;;;;;;2.55;1.50;;;26.90;99.90;;;;;;5093517;28;20217;-75
2022/07/03 11:46:27;;;;;;;3.38;1.70;;;26.80;99.90;;;;;;5093753;28;20177;-75
2022/07/03 11:49:13;;;;;;;5.38;1.60;;;27.00;99.90;;;;;;5092285;28;20185;-75
2022/07/03 11:51:52;;;;;;;2.17;1.50;;;27.00;99.90;;;;;;5093143;28;20212;-75
2022/07/03 11:54:18;;;;;;;3.55;1.50;;;27.00;99.90;;;;;;5092062;28;20618;-76
2022/07/03 11:56:47;;;;;;;2.78;2.05;;;27.20;99.90;;;;;;5093644;28;20184;-75
2022/07/03 11:59:13;;;;;;;2.90;1.65;;;27.40;99.90;;;;;;5093396;28;20401;-75
2022/07/03 12:01:40;;;;;;;3.22;1.77;;;27.60;99.90;;;;;;5096829;28;20169;-79
2022/07/03 12:04:23;;;;;;;1.88;1.45;;;27.80;99.90;;;;;;5097123;28;20181;-77
2022/07/03 12:06:55;;;;;;;1.70;1.40;;;28.10;99.90;;;;;;5099296;28;20193;-78
2022/07/03 12:09:29;;;;;;;3.40;1.45;;;28.00;99.90;;;;;;5098514;28;20184;-77
2022/07/03 12:11:57;;;;;;;1.88;1.65;;;28.10;99.90;;;;;;5098321;28;20514;-73
2022/07/03 12:14:41;;;;;;;2.97;1.70;;;27.90;99.90;;;;;;5096724;28;20217;-70
2022/07/03 12:17:10;;;;;;;1.85;1.52;;;27.50;99.90;;;;;;5096140;28;20703;-70
2022/07/03 12:19:39;;;;;;;2.35;1.65;;;26.90;99.90;;;;;;5096463;28;20228;-70
2022/07/03 12:22:06;;;;;;;3.05;1.60;;;26.70;99.90;;;;;;5096485;28;20150;-70
2022/07/03 12:24:33;;;;;;;2.08;1.60;;;27.00;99.90;;;;;;5096020;28;20215;-69
2022/07/03 12:27:02;;;;;;;3.17;1.58;;;27.30;99.90;;;;;;5096294;28;20182;-69
2022/07/03 12:29:28;;;;;;;2.88;1.60;;;27.20;99.90;;;;;;5095049;28;20181;-70
2022/07/03 12:31:54;;;;;;;6.55;1.35;;;27.40;99.90;;;;;;5094874;28;20658;-69
2022/07/03 12:34:20;;;;;;;5.07;1.50;;;27.60;99.90;;;;;;5094808;28;20613;-69
2022/07/03 12:36:59;;;;;;;3.00;1.50;;;27.70;99.90;;;;;;5095953;28;20188;-70
2022/07/03 12:39:49;;;;;;;1.60;1.35;;;28.10;99.90;;;;;;5095694;28;20196;-70
2022/07/03 12:42:16;;;;;;;2.13;1.77;;;28.60;99.90;;;;;;5096244;28;20672;-70
2022/07/03 12:44:42;;;;;;;3.28;1.70;;;28.80;99.90;;;;;;5096176;28;20176;-70
2022/07/03 12:47:08;;;;;;;3.15;1.30;;;28.60;99.90;;;;;;5095674;28;20189;-69
2022/07/03 12:49:34;;;;;;;2.47;1.40;;;28.50;99.90;;;;;;5095832;28;20233;-70
2022/07/03 12:52:01;;;;;;;1.90;1.40;;;28.60;99.90;;;;;;5095870;28;20259;-70
2022/07/03 12:54:34;;;;;;;5.22;1.63;;;28.80;99.90;;;;;;5095417;28;20543;-70
2022/07/03 13:00:21;;;;;;;2.03;1.20;;;28.70;99.90;;;;;;5095849;28;20238;-69
2022/07/03 13:02:48;;;;;;;2.85;1.35;;;28.60;99.90;;;;;;5093951;28;20710;-69
2022/07/03 13:05:18;;;;;;;1.60;1.40;;;28.60;99.90;;;;;;5095494;28;20194;-69
2022/07/03 13:07:46;;;;;;;4.78;1.30;;;28.50;99.90;;;;;;5095237;28;20185;-70
2022/07/03 13:10:19;;;;;;;2.60;1.33;;;28.70;99.90;;;;;;5094243;28;20185;-70
2022/07/03 13:12:56;;;;;;;2.42;1.52;;;28.90;99.90;;;;;;5093125;28;20625;-70
2022/07/03 13:15:28;;;;;;;2.38;1.52;;;29.30;99.90;;;;;;5094083;28;20181;-70
2022/07/03 13:17:54;;;;;;;2.35;1.42;;;29.20;99.90;;;;;;5093907;28;20644;-70